Time;durP1;ratioP1;P1;durP2;ratioP2;P2;SDS_P1;SDS_P2;PMS_P1;PMS_P2;Temp;Humidity;BMP_temperature;BMP_pressure;BME280_temperature;BME280_humidity;BME280_pressure;Samples;Min_cycle;Max_cycle;Signal;HPM_P1;HPM_P2
2024/01/07 00:00:04;;;;;;;33.05;29.55;;;11.80;98.80;;;;;;5053718;28;20460;-64
2024/01/07 00:02:33;;;;;;;31.27;27.85;;;11.80;98.90;;;;;;5053779;28;20021;-66
2024/01/07 00:04:59;;;;;;;38.47;32.08;;;11.70;99.00;;;;;;5053738;28;20029;-68
2024/01/07 00:07:24;;;;;;;47.00;37.90;;;11.80;99.30;;;;;;5053642;28;20040;-65
2024/01/07 00:09:50;;;;;;;43.75;36.17;;;11.70;99.60;;;;;;5052308;28;20387;-66
2024/01/07 00:12:17;;;;;;;52.72;41.88;;;11.60;99.90;;;;;;5053719;28;20065;-69
2024/01/07 00:14:42;;;;;;;62.08;49.47;;;11.50;99.90;;;;;;5053396;28;20024;-66
2024/01/07 00:17:10;;;;;;;73.90;56.83;;;11.50;99.90;;;;;;5053532;28;20025;-62
2024/01/07 00:19:37;;;;;;;56.90;46.22;;;11.50;99.90;;;;;;5053513;28;20052;-64
2024/01/07 00:22:03;;;;;;;81.78;61.70;;;11.50;99.90;;;;;;5053516;28;20048;-68
2024/01/07 00:24:29;;;;;;;78.72;59.40;;;11.50;99.90;;;;;;5053589;28;20474;-69
2024/01/07 00:26:55;;;;;;;66.97;54.35;;;11.60;99.90;;;;;;5052137;28;20025;-67
2024/01/07 00:29:21;;;;;;;57.65;47.55;;;11.60;99.90;;;;;;5053328;28;20032;-68
2024/01/07 00:31:47;;;;;;;54.28;45.33;;;11.60;99.90;;;;;;5053225;28;20096;-67
2024/01/07 00:34:12;;;;;;;53.53;44.00;;;11.50;99.90;;;;;;5053525;28;20025;-67
2024/01/07 00:36:38;;;;;;;62.58;49.30;;;11.50;99.90;;;;;;5053327;28;20029;-67
2024/01/07 00:39:06;;;;;;;52.75;43.83;;;11.60;99.90;;;;;;5052016;28;20037;-70
2024/01/07 00:41:31;;;;;;;48.75;41.78;;;11.50;99.90;;;;;;5053151;28;20021;-73
2024/01/07 00:43:57;;;;;;;53.33;42.90;;;11.60;99.90;;;;;;5053169;28;20047;-64
2024/01/07 00:46:23;;;;;;;55.58;46.45;;;11.70;99.90;;;;;;5053247;28;20499;-66
2024/01/07 00:48:48;;;;;;;53.88;45.72;;;11.80;99.90;;;;;;5051914;28;20039;-67
2024/01/07 00:51:14;;;;;;;50.80;43.22;;;11.80;99.90;;;;;;5053202;28;20485;-64
2024/01/07 00:53:40;;;;;;;46.63;39.85;;;11.80;99.90;;;;;;5051934;28;20029;-68
2024/01/07 00:56:06;;;;;;;49.45;41.05;;;11.90;99.90;;;;;;5053052;28;20052;-65
2024/01/07 00:58:32;;;;;;;46.60;39.35;;;11.90;99.90;;;;;;5052756;28;20060;-68
2024/01/07 01:00:59;;;;;;;48.72;40.72;;;11.90;99.90;;;;;;5053075;28;20029;-68
2024/01/07 01:03:26;;;;;;;56.35;43.45;;;11.70;99.90;;;;;;5052978;28;20147;-66
2024/01/07 01:05:51;;;;;;;44.45;37.47;;;11.70;99.90;;;;;;5051778;28;20104;-67
2024/01/07 01:08:17;;;;;;;51.08;40.42;;;11.60;99.90;;;;;;5055433;28;20435;-66
2024/01/07 01:10:43;;;;;;;37.20;32.58;;;11.60;99.90;;;;;;5057030;28;20023;-67
2024/01/07 01:13:09;;;;;;;35.90;30.65;;;11.50;99.90;;;;;;5056745;28;20035;-64
2024/01/07 01:15:35;;;;;;;34.00;30.25;;;11.50;99.90;;;;;;5057081;28;20013;-69
2024/01/07 01:18:01;;;;;;;40.75;33.60;;;11.50;99.90;;;;;;5056996;28;20099;-65
2024/01/07 01:20:26;;;;;;;31.92;27.75;;;11.60;99.90;;;;;;5056864;28;20052;-69
2024/01/07 01:22:52;;;;;;;30.88;26.35;;;11.60;99.90;;;;;;5056847;28;20434;-61
2024/01/07 01:25:18;;;;;;;29.83;24.45;;;11.60;99.90;;;;;;5056807;28;20025;-65
2024/01/07 01:27:44;;;;;;;24.33;21.73;;;11.60;99.90;;;;;;5055098;28;20035;-66
2024/01/07 01:30:11;;;;;;;29.77;25.15;;;11.60;99.90;;;;;;5056826;28;20017;-71
2024/01/07 01:32:36;;;;;;;25.98;22.55;;;11.60;99.90;;;;;;5055385;28;20021;-66
2024/01/07 01:35:02;;;;;;;26.58;23.42;;;11.50;99.90;;;;;;5056518;28;20028;-64
2024/01/07 01:37:28;;;;;;;28.48;24.25;;;11.50;99.90;;;;;;5055630;28;20381;-72
2024/01/07 01:39:54;;;;;;;23.23;20.80;;;11.50;99.90;;;;;;5055217;28;20029;-65
2024/01/07 01:42:20;;;;;;;24.40;20.90;;;11.40;99.90;;;;;;5056298;28;20049;-67
2024/01/07 01:44:46;;;;;;;26.40;23.52;;;11.40;99.90;;;;;;5056490;28;20576;-71
2024/01/07 01:47:12;;;;;;;27.65;23.15;;;11.40;99.90;;;;;;5055127;28;20028;-64
2024/01/07 01:49:38;;;;;;;28.38;24.35;;;11.40;99.90;;;;;;5056699;28;20096;-65
2024/01/07 01:52:05;;;;;;;28.27;24.52;;;11.40;99.90;;;;;;5056429;28;20040;-69
2024/01/07 01:54:30;;;;;;;33.20;26.58;;;11.50;99.90;;;;;;5056036;28;20024;-63
2024/01/07 01:56:57;;;;;;;29.42;24.45;;;11.50;99.90;;;;;;5056233;28;20388;-65
2024/01/07 01:59:25;;;;;;;27.75;24.30;;;11.50;99.90;;;;;;5055903;28;20103;-65
2024/01/07 02:01:52;;;;;;;25.25;22.52;;;11.60;99.90;;;;;;5056122;28;20017;-66
2024/01/07 02:04:18;;;;;;;25.13;22.52;;;11.50;99.90;;;;;;5056146;28;20105;-64
2024/01/07 02:06:45;;;;;;;24.45;21.58;;;11.60;99.90;;;;;;5056000;28;20108;-69
2024/01/07 02:09:11;;;;;;;24.02;21.52;;;11.60;99.90;;;;;;5056025;28;20061;-63
2024/01/07 02:11:37;;;;;;;27.63;23.60;;;11.60;99.90;;;;;;5055837;28;20025;-71
2024/01/07 02:14:02;;;;;;;25.75;23.00;;;11.60;99.90;;;;;;5055793;28;20025;-68
2024/01/07 02:16:28;;;;;;;25.25;22.63;;;11.60;99.90;;;;;;5054652;28;20502;-72
2024/01/07 02:18:54;;;;;;;27.50;23.20;;;11.50;99.90;;;;;;5055341;28;20018;-65
2024/01/07 02:21:19;;;;;;;22.55;20.15;;;11.50;99.90;;;;;;5055679;28;20083;-68
2024/01/07 02:23:45;;;;;;;20.52;18.38;;;11.40;99.90;;;;;;5055800;28;20494;-65
2024/01/07 02:26:11;;;;;;;20.15;17.92;;;11.40;99.90;;;;;;5055512;28;20028;-66
2024/01/07 02:28:36;;;;;;;24.17;21.35;;;11.30;99.90;;;;;;5055560;28;20025;-64
2024/01/07 02:31:02;;;;;;;21.55;19.35;;;11.40;99.90;;;;;;5055711;28;20027;-70
2024/01/07 02:33:29;;;;;;;23.83;21.08;;;11.40;99.90;;;;;;5055505;28;20025;-70
2024/01/07 02:35:55;;;;;;;21.92;19.38;;;11.50;99.90;;;;;;5055571;28;20107;-69
2024/01/07 02:38:20;;;;;;;20.40;18.33;;;11.40;99.90;;;;;;5055424;28;20100;-68
2024/01/07 02:40:46;;;;;;;21.48;19.17;;;11.30;99.90;;;;;;5053978;28;20070;-69
2024/01/07 02:43:12;;;;;;;21.38;19.13;;;11.40;99.90;;;;;;5054070;28;20468;-64
2024/01/07 02:45:37;;;;;;;23.98;20.25;;;11.30;99.90;;;;;;5055128;28;20017;-70
2024/01/07 02:48:03;;;;;;;19.92;17.83;;;11.30;99.90;;;;;;5053971;28;20076;-64
2024/01/07 02:50:29;;;;;;;19.48;17.38;;;11.20;99.90;;;;;;5055377;28;20100;-69
2024/01/07 02:52:55;;;;;;;19.38;17.42;;;11.10;99.90;;;;;;5055147;28;20051;-67
2024/01/07 02:55:20;;;;;;;19.55;17.58;;;11.10;99.90;;;;;;5053658;28;20021;-61
2024/01/07 02:57:46;;;;;;;20.60;18.52;;;11.10;99.90;;;;;;5055021;28;22341;-67
2024/01/07 03:00:12;;;;;;;22.40;19.98;;;11.20;99.90;;;;;;5053645;28;20490;-66
2024/01/07 03:02:38;;;;;;;18.60;16.70;;;11.10;99.90;;;;;;5055164;28;20021;-71
2024/01/07 03:05:04;;;;;;;20.33;18.23;;;11.10;99.90;;;;;;5054984;28;20021;-70
2024/01/07 03:07:29;;;;;;;21.40;18.33;;;11.20;99.90;;;;;;5054822;28;20112;-70
2024/01/07 03:09:55;;;;;;;19.42;17.42;;;11.10;99.90;;;;;;5054865;28;20159;-71
2024/01/07 03:12:21;;;;;;;24.50;21.98;;;11.00;99.90;;;;;;5054901;28;20147;-70
2024/01/07 03:14:46;;;;;;;20.38;18.38;;;10.90;99.90;;;;;;5054701;28;20025;-67
2024/01/07 03:17:14;;;;;;;20.90;18.70;;;10.80;99.90;;;;;;5054608;28;20032;-62
2024/01/07 03:19:40;;;;;;;20.67;18.48;;;10.80;99.90;;;;;;5054591;28;20024;-73
2024/01/07 03:22:07;;;;;;;20.52;18.33;;;10.80;99.90;;;;;;5054606;28;20025;-65
2024/01/07 03:24:33;;;;;;;21.15;18.95;;;10.70;99.90;;;;;;5054426;28;20021;-69
2024/01/07 03:26:59;;;;;;;19.95;17.85;;;10.70;99.90;;;;;;5054391;28;20025;-74
2024/01/07 03:29:24;;;;;;;21.73;19.48;;;10.70;99.90;;;;;;5054170;28;20379;-65
2024/01/07 03:31:50;;;;;;;19.00;16.98;;;10.70;99.90;;;;;;5053916;28;20017;-72
2024/01/07 03:34:16;;;;;;;19.70;17.73;;;10.60;99.90;;;;;;5054607;28;20024;-65
2024/01/07 03:36:42;;;;;;;19.08;17.05;;;10.50;99.90;;;;;;5054186;28;20021;-66
2024/01/07 03:39:08;;;;;;;18.50;16.48;;;10.50;99.90;;;;;;5054242;28;20021;-69
2024/01/07 03:41:34;;;;;;;22.35;20.13;;;10.40;99.90;;;;;;5054338;28;20499;-63
2024/01/07 03:43:59;;;;;;;20.50;17.98;;;10.40;99.90;;;;;;5054319;28;20028;-72
2024/01/07 03:46:25;;;;;;;19.13;16.05;;;10.30;99.90;;;;;;5052952;28;20029;-68
2024/01/07 03:48:51;;;;;;;16.98;15.10;;;10.30;99.90;;;;;;5054133;28;20054;-68
2024/01/07 03:51:16;;;;;;;19.92;17.83;;;10.30;99.90;;;;;;5054027;28;20032;-67
2024/01/07 03:53:42;;;;;;;15.10;13.60;;;10.30;99.90;;;;;;5054121;28;20021;-69
2024/01/07 03:56:08;;;;;;;16.00;14.35;;;10.30;99.90;;;;;;5053852;28;20158;-72
2024/01/07 03:58:35;;;;;;;15.82;14.30;;;10.30;99.90;;;;;;5052683;28;20045;-65
2024/01/07 04:01:01;;;;;;;15.00;13.48;;;10.30;99.90;;;;;;5053982;28;20027;-68
2024/01/07 04:03:26;;;;;;;15.85;14.25;;;10.30;99.90;;;;;;5053894;28;20021;-69
2024/01/07 04:05:52;;;;;;;19.13;17.15;;;10.40;99.90;;;;;;5053564;28;20025;-72
2024/01/07 04:08:18;;;;;;;16.95;15.32;;;10.50;99.90;;;;;;5053815;28;20039;-69
2024/01/07 04:10:44;;;;;;;22.08;19.80;;;10.40;99.90;;;;;;5053676;28;20071;-65
2024/01/07 04:13:09;;;;;;;18.33;16.42;;;10.50;99.90;;;;;;5053877;28;20021;-68
2024/01/07 04:15:35;;;;;;;16.25;14.55;;;10.40;99.90;;;;;;5053789;28;20048;-68
2024/01/07 04:18:03;;;;;;;14.95;13.45;;;10.50;99.90;;;;;;5053542;28;20048;-68
2024/01/07 04:20:29;;;;;;;16.48;14.75;;;10.50;99.90;;;;;;5052132;28;20028;-62
2024/01/07 04:22:55;;;;;;;13.98;12.57;;;10.40;99.90;;;;;;5053651;28;20100;-68
2024/01/07 04:25:20;;;;;;;14.88;13.35;;;10.30;99.90;;;;;;5053568;28;20096;-71
2024/01/07 04:27:46;;;;;;;18.92;16.92;;;10.40;99.90;;;;;;5053359;28;20029;-66
2024/01/07 04:30:12;;;;;;;18.75;16.75;;;10.40;99.90;;;;;;5053513;28;20379;-71
2024/01/07 04:32:37;;;;;;;19.65;17.63;;;10.40;99.90;;;;;;5053497;28;20103;-63
2024/01/07 04:35:03;;;;;;;15.73;14.15;;;10.20;99.90;;;;;;5052905;28;20017;-67
2024/01/07 04:37:29;;;;;;;14.20;12.80;;;10.20;99.90;;;;;;5053290;28;20387;-68
2024/01/07 04:39:55;;;;;;;16.77;15.07;;;10.30;99.90;;;;;;5053290;28;20103;-66
2024/01/07 04:42:20;;;;;;;17.60;15.80;;;10.40;99.90;;;;;;5051900;28;20360;-69
2024/01/07 04:44:46;;;;;;;16.38;14.65;;;10.20;99.90;;;;;;5052052;28;20032;-69
2024/01/07 04:47:35;;;;;;;19.20;17.17;;;10.20;99.90;;;;;;5053237;28;20041;-67
2024/01/07 04:50:01;;;;;;;14.55;13.15;;;10.20;99.90;;;;;;5053040;28;20017;-63
2024/01/07 04:52:27;;;;;;;16.80;15.10;;;10.30;99.90;;;;;;5051947;28;20025;-70
2024/01/07 04:54:53;;;;;;;19.13;17.17;;;10.30;99.90;;;;;;5053089;28;20024;-73
2024/01/07 04:57:19;;;;;;;15.38;13.77;;;10.40;99.90;;;;;;5053421;28;20025;-72
2024/01/07 04:59:45;;;;;;;18.20;16.38;;;10.40;99.90;;;;;;5052967;28;20059;-68
2024/01/07 05:02:11;;;;;;;15.65;14.05;;;10.20;99.90;;;;;;5053032;28;20027;-61
2024/01/07 05:04:37;;;;;;;17.48;15.77;;;10.00;99.90;;;;;;5052886;28;20025;-64
2024/01/07 05:07:03;;;;;;;16.25;14.65;;;9.90;99.90;;;;;;5051616;28;20120;-67
2024/01/07 05:09:29;;;;;;;14.57;13.02;;;9.90;99.90;;;;;;5052969;28;20018;-67
2024/01/07 05:11:55;;;;;;;14.45;13.05;;;10.00;99.90;;;;;;5052972;28;20025;-66
2024/01/07 05:14:22;;;;;;;14.65;13.25;;;10.10;99.90;;;;;;5053015;28;20017;-67
2024/01/07 05:16:48;;;;;;;13.20;11.77;;;10.20;99.90;;;;;;5053060;28;20024;-70
2024/01/07 05:19:13;;;;;;;14.90;13.40;;;10.30;99.90;;;;;;5052609;28;20021;-69
2024/01/07 05:21:39;;;;;;;13.82;12.45;;;10.40;99.90;;;;;;5052930;28;20096;-70
2024/01/07 05:24:05;;;;;;;14.48;13.05;;;10.40;99.90;;;;;;5053047;28;20376;-66
2024/01/07 05:26:37;;;;;;;13.13;11.95;;;10.40;99.90;;;;;;5052743;28;20017;-65
2024/01/07 05:29:03;;;;;;;13.23;11.93;;;10.50;99.90;;;;;;5052859;28;20036;-68
2024/01/07 05:31:28;;;;;;;13.68;12.38;;;10.50;99.90;;;;;;5052798;28;20475;-66
2024/01/07 05:33:54;;;;;;;12.98;11.68;;;10.50;99.90;;;;;;5052435;28;20103;-64
2024/01/07 05:36:20;;;;;;;11.95;10.80;;;10.40;99.90;;;;;;5051649;28;20032;-67
2024/01/07 05:38:45;;;;;;;12.70;11.50;;;10.40;99.90;;;;;;5052750;28;20104;-69
2024/01/07 05:41:11;;;;;;;12.10;10.90;;;10.40;99.90;;;;;;5052598;28;20104;-66
2024/01/07 05:43:37;;;;;;;12.50;11.30;;;10.40;99.90;;;;;;5052871;28;20087;-62
2024/01/07 05:46:03;;;;;;;11.60;10.45;;;10.40;99.90;;;;;;5052779;28;20017;-66
2024/01/07 05:48:29;;;;;;;11.02;10.02;;;10.40;99.90;;;;;;5052383;28;20025;-64
2024/01/07 05:50:54;;;;;;;11.15;10.05;;;10.40;99.90;;;;;;5052559;28;20021;-68
2024/01/07 05:53:20;;;;;;;11.52;10.32;;;10.40;99.90;;;;;;5053452;28;20079;-69
2024/01/07 05:55:46;;;;;;;12.80;11.60;;;10.50;99.90;;;;;;5056279;28;20029;-66
2024/01/07 05:58:11;;;;;;;12.73;11.45;;;10.30;99.90;;;;;;5055953;28;20052;-71
2024/01/07 06:00:38;;;;;;;12.80;11.60;;;10.40;99.90;;;;;;5056262;28;20112;-65
2024/01/07 06:03:04;;;;;;;10.80;9.75;;;10.40;99.90;;;;;;5054706;28;20024;-66
2024/01/07 06:05:30;;;;;;;17.27;15.55;;;10.50;99.90;;;;;;5055919;28;20025;-64
2024/01/07 06:07:55;;;;;;;13.65;12.25;;;10.40;99.90;;;;;;5056168;28;20033;-65
2024/01/07 06:10:21;;;;;;;11.73;10.63;;;10.30;99.90;;;;;;5054752;28;20052;-67
2024/01/07 06:12:47;;;;;;;12.15;10.95;;;10.40;99.90;;;;;;5055958;28;20098;-64
2024/01/07 06:15:13;;;;;;;16.98;15.02;;;10.40;99.90;;;;;;5054790;28;20114;-70
2024/01/07 06:17:38;;;;;;;13.80;12.50;;;10.50;99.90;;;;;;5055789;28;20119;-65
2024/01/07 06:20:05;;;;;;;12.05;10.90;;;10.40;99.90;;;;;;5055853;28;20025;-68
2024/01/07 06:22:31;;;;;;;15.48;13.98;;;10.40;99.90;;;;;;5055799;28;20025;-73
2024/01/07 06:24:57;;;;;;;12.55;11.35;;;10.20;99.90;;;;;;5055817;28;20017;-71
2024/01/07 06:27:22;;;;;;;12.52;11.27;;;10.30;99.90;;;;;;5055640;28;20029;-66
2024/01/07 06:29:48;;;;;;;12.43;11.23;;;10.20;99.90;;;;;;5055568;28;20029;-71
2024/01/07 06:32:14;;;;;;;12.57;11.27;;;10.30;99.90;;;;;;5055522;28;20021;-66
2024/01/07 06:34:40;;;;;;;12.65;11.35;;;10.40;99.90;;;;;;5055653;28;20017;-62
2024/01/07 06:37:07;;;;;;;14.32;12.85;;;10.40;99.90;;;;;;5055498;28;20021;-60
2024/01/07 06:39:34;;;;;;;18.23;15.85;;;10.50;99.90;;;;;;5055503;28;20075;-67
2024/01/07 06:42:00;;;;;;;13.52;12.23;;;10.40;99.90;;;;;;5055373;28;20104;-65
2024/01/07 06:44:25;;;;;;;15.82;14.30;;;10.30;99.90;;;;;;5053998;28;20083;-61
2024/01/07 06:46:51;;;;;;;17.23;15.43;;;10.20;99.90;;;;;;5053956;28;20017;-66
2024/01/07 06:49:17;;;;;;;13.98;12.68;;;10.20;99.90;;;;;;5055381;28;20017;-71
2024/01/07 06:51:43;;;;;;;12.43;11.13;;;10.20;99.90;;;;;;5055187;28;20028;-68
2024/01/07 06:54:09;;;;;;;11.68;10.57;;;10.20;99.90;;;;;;5055262;28;20017;-67
2024/01/07 06:56:34;;;;;;;9.95;9.00;;;10.20;99.90;;;;;;5055169;28;20021;-63
2024/01/07 06:59:00;;;;;;;10.15;9.25;;;10.40;99.90;;;;;;5053545;28;20060;-72
2024/01/07 07:01:26;;;;;;;11.00;10.00;;;10.40;99.90;;;;;;5054752;28;20106;-64
2024/01/07 07:03:52;;;;;;;11.77;10.57;;;10.50;99.90;;;;;;5054822;28;20090;-72
2024/01/07 07:06:17;;;;;;;11.85;10.75;;;10.50;99.90;;;;;;5053838;28;20029;-65
2024/01/07 07:08:43;;;;;;;12.32;11.13;;;10.50;99.90;;;;;;5054763;28;20476;-71
2024/01/07 07:11:09;;;;;;;16.33;14.57;;;10.60;99.90;;;;;;5054855;28;20363;-69
2024/01/07 07:13:35;;;;;;;14.80;13.40;;;10.60;99.90;;;;;;5054867;28;20025;-70
2024/01/07 07:16:01;;;;;;;12.50;11.30;;;10.40;99.90;;;;;;5054484;28;20051;-65
2024/01/07 07:18:26;;;;;;;15.80;14.27;;;10.40;99.90;;;;;;5053452;28;20124;-67
2024/01/07 07:20:52;;;;;;;16.27;14.43;;;10.40;99.90;;;;;;5053506;28;20059;-70
2024/01/07 07:23:18;;;;;;;16.80;15.10;;;10.20;99.90;;;;;;5054576;28;20100;-64
2024/01/07 07:25:44;;;;;;;12.70;11.50;;;10.00;99.90;;;;;;5054586;28;20060;-66
2024/01/07 07:28:10;;;;;;;13.23;11.93;;;10.00;99.90;;;;;;5054260;28;20079;-69
2024/01/07 07:30:35;;;;;;;13.05;11.85;;;10.10;99.90;;;;;;5054442;28;20025;-74
2024/01/07 07:33:02;;;;;;;13.05;11.75;;;10.10;99.90;;;;;;5054920;28;20017;-67
2024/01/07 07:35:28;;;;;;;16.05;14.45;;;10.10;99.90;;;;;;5054523;28;20386;-70
2024/01/07 07:37:55;;;;;;;13.52;12.13;;;10.10;99.90;;;;;;5054328;28;20113;-70
2024/01/07 07:40:20;;;;;;;15.73;14.02;;;10.10;99.90;;;;;;5054103;28;20426;-71
2024/01/07 07:42:46;;;;;;;12.95;11.60;;;10.00;99.90;;;;;;5054387;28;20074;-69
2024/01/07 07:45:12;;;;;;;12.63;11.43;;;10.00;99.90;;;;;;5054032;28;20017;-70
2024/01/07 07:47:40;;;;;;;17.65;15.85;;;10.10;99.90;;;;;;5054068;28;20036;-65
2024/01/07 07:50:07;;;;;;;15.02;13.43;;;10.10;99.90;;;;;;5054092;28;20028;-62
2024/01/07 07:52:33;;;;;;;14.75;13.38;;;10.00;99.90;;;;;;5054106;28;20075;-62
2024/01/07 07:54:58;;;;;;;14.68;13.27;;;10.00;99.90;;;;;;5053873;28;20383;-68
2024/01/07 07:57:25;;;;;;;12.48;11.25;;;10.00;99.90;;;;;;5053978;28;20017;-67
2024/01/07 07:59:50;;;;;;;14.27;12.88;;;10.10;99.90;;;;;;5052437;28;20045;-72
2024/01/07 08:02:16;;;;;;;16.00;14.45;;;10.10;99.90;;;;;;5053798;28;20031;-68
2024/01/07 08:04:43;;;;;;;12.70;11.52;;;10.10;99.90;;;;;;5053868;28;20446;-64
2024/01/07 08:07:09;;;;;;;13.23;11.95;;;10.00;99.90;;;;;;5053785;28;20438;-67
2024/01/07 08:09:38;;;;;;;14.70;13.18;;;10.10;99.90;;;;;;5053773;28;20021;-72
2024/01/07 08:12:05;;;;;;;11.25;10.25;;;10.10;99.90;;;;;;5053641;28;20108;-62
2024/01/07 08:14:32;;;;;;;11.18;10.18;;;10.20;99.90;;;;;;5053857;28;20021;-66
2024/01/07 08:16:58;;;;;;;16.00;14.30;;;10.30;99.90;;;;;;5053123;28;20017;-71
2024/01/07 08:19:24;;;;;;;10.10;9.20;;;10.30;99.90;;;;;;5052347;28;20083;-64
2024/01/07 08:21:49;;;;;;;15.25;13.75;;;10.30;99.90;;;;;;5053546;28;20480;-67
2024/01/07 08:24:15;;;;;;;13.35;12.05;;;10.20;99.90;;;;;;5053678;28;20096;-64
2024/01/07 08:26:40;;;;;;;13.70;12.30;;;10.20;99.90;;;;;;5053220;28;20024;-66
